Time;durP1;ratioP1;P1;durP2;ratioP2;P2;SDS_P1;SDS_P2;PMS_P1;PMS_P2;Temp;Humidity;BMP_temperature;BMP_pressure;BME280_temperature;BME280_humidity;BME280_pressure;Samples;Min_cycle;Max_cycle;Signal;HPM_P1;HPM_P2
2024/05/08 00:01:35;;;;;;;;;;;;;;;8.46;100.00;101927.84;5405087;26;19930;-70
2024/05/08 00:04:00;;;;;;;;;;;;;;;8.46;100.00;101931.38;5425845;26;19929;-69
2024/05/08 00:06:25;;;;;;;;;;;;;;;8.43;100.00;101927.69;5415726;26;19929;-70
2024/05/08 00:08:50;;;;;;;;;;;;;;;8.42;100.00;101936.41;5434578;26;19974;-70
2024/05/08 00:11:16;;;;;;;;;;;;;;;8.40;100.00;101936.31;5440378;26;19936;-70
2024/05/08 00:13:41;;;;;;;;;;;;;;;8.42;100.00;101931.13;5421449;26;19929;-70
2024/05/08 00:16:06;;;;;;;;;;;;;;;8.43;100.00;101935.56;5421112;26;19964;-71
2024/05/08 00:18:31;;;;;;;;;;;;;;;8.44;100.00;101927.75;5423904;26;20019;-71
2024/05/08 00:20:56;;;;;;;;;;;;;;;8.43;100.00;101925.03;5410364;26;19936;-69
2024/05/08 00:23:22;;;;;;;;;;;;;;;8.43;100.00;101930.31;5387263;26;19937;-68
2024/05/08 00:25:47;;;;;;;;;;;;;;;8.38;100.00;101930.97;5427747;26;19929;-69
2024/05/08 00:28:12;;;;;;;;;;;;;;;8.40;100.00;101935.41;5407135;26;19930;-71
2024/05/08 00:30:37;;;;;;;;;;;;;;;8.38;100.00;101941.50;5403515;26;19935;-69
2024/05/08 00:33:03;;;;;;;;;;;;;;;8.40;100.00;101935.41;5402217;26;19997;-70
2024/05/08 00:35:28;;;;;;;;;;;;;;;8.42;100.00;101939.03;5408448;26;20030;-71
2024/05/08 00:37:53;;;;;;;;;;;;;;;8.45;100.00;101933.94;5407726;26;19929;-69
2024/05/08 00:40:19;;;;;;;;;;;;;;;8.45;100.00;101932.22;5388443;26;20372;-71
2024/05/08 00:42:50;;;;;;;;;;;;;;;8.45;100.00;101936.56;5409541;26;19998;-68
2024/05/08 00:45:16;;;;;;;;;;;;;;;8.45;100.00;101931.31;5409370;26;19936;-70
2024/05/08 00:47:41;;;;;;;;;;;;;;;8.45;100.00;101923.41;5409750;26;19936;-70
2024/05/08 00:50:06;;;;;;;;;;;;;;;8.45;100.00;101924.31;5408845;26;19945;-70
2024/05/08 00:52:32;;;;;;;;;;;;;;;8.50;100.00;101927.16;5409706;26;19957;-69
2024/05/08 00:54:57;;;;;;;;;;;;;;;8.56;100.00;101927.50;5384763;26;19929;-70
2024/05/08 00:57:23;;;;;;;;;;;;;;;8.58;100.00;101920.59;5409963;26;19985;-69
2024/05/08 00:59:48;;;;;;;;;;;;;;;8.54;100.00;101924.78;5388003;26;19930;-72
2024/05/08 01:02:13;;;;;;;;;;;;;;;8.59;100.00;101917.13;5397507;26;19938;-69
2024/05/08 01:04:39;;;;;;;;;;;;;;;8.62;100.00;101923.50;5389699;26;19929;-72
2024/05/08 01:07:04;;;;;;;;;;;;;;;8.65;100.00;101928.03;5409333;26;20027;-69
2024/05/08 01:09:29;;;;;;;;;;;;;;;8.65;100.00;101926.28;5409535;26;20005;-72
2024/05/08 01:11:56;;;;;;;;;;;;;;;8.69;100.00;101924.69;5398995;26;19997;-69
2024/05/08 01:14:21;;;;;;;;;;;;;;;8.62;100.00;101927.84;5384027;26;19938;-71
2024/05/08 01:16:48;;;;;;;;;;;;;;;8.67;100.00;101929.88;5409513;26;19998;-70
2024/05/08 01:19:14;;;;;;;;;;;;;;;8.69;100.00;101930.88;5407964;26;20357;-72
2024/05/08 01:21:39;;;;;;;;;;;;;;;8.69;100.00;101932.59;5397962;26;20048;-72
2024/05/08 01:24:04;;;;;;;;;;;;;;;8.70;100.00;101921.25;5373625;26;19973;-70
2024/05/08 01:26:30;;;;;;;;;;;;;;;8.68;100.00;101925.53;5405820;26;19963;-72
2024/05/08 01:28:56;;;;;;;;;;;;;;;8.76;100.00;101929.50;5409254;26;19961;-70
2024/05/08 01:31:22;;;;;;;;;;;;;;;8.79;100.00;101931.38;5408902;26;19960;-72
2024/05/08 01:33:47;;;;;;;;;;;;;;;8.78;100.00;101933.13;5408039;26;20377;-69
2024/05/08 01:36:12;;;;;;;;;;;;;;;8.80;100.00;101935.84;5407452;26;19986;-71
2024/05/08 01:38:38;;;;;;;;;;;;;;;8.80;100.00;101928.84;5407444;26;19929;-69
2024/05/08 01:41:03;;;;;;;;;;;;;;;8.80;100.00;101928.84;5408966;26;19929;-68
2024/05/08 01:43:28;;;;;;;;;;;;;;;8.53;100.00;101888.72;5383909;26;19962;-70
2024/05/08 01:45:53;;;;;;;;;;;;;;;8.80;100.00;101931.47;5409219;26;19962;-69
2024/05/08 01:48:18;;;;;;;;;;;;;;;8.84;100.00;101929.88;5408612;26;19936;-70
2024/05/08 01:50:44;;;;;;;;;;;;;;;8.82;100.00;101929.81;5406537;26;20428;-71
2024/05/08 01:53:09;;;;;;;;;;;;;;;8.79;100.00;101934.94;5407338;26;19936;-70
2024/05/08 01:55:34;;;;;;;;;;;;;;;8.72;100.00;101930.13;5408180;26;19998;-70
2024/05/08 01:58:00;;;;;;;;;;;;;;;8.74;100.00;101933.75;5388845;26;19929;-69
2024/05/08 02:00:25;;;;;;;;;;;;;;;8.80;100.00;101931.47;5402889;26;20261;-72
2024/05/08 02:02:51;;;;;;;;;;;;;;;8.82;100.00;101935.09;5408282;26;20406;-70
2024/05/08 02:05:16;;;;;;;;;;;;;;;8.80;100.00;101927.94;5404138;26;20007;-68
2024/05/08 02:07:41;;;;;;;;;;;;;;;8.76;100.00;101934.75;5395871;26;19965;-70
2024/05/08 02:10:07;;;;;;;;;;;;;;;8.71;100.00;101934.50;5395286;26;19929;-72
2024/05/08 02:12:32;;;;;;;;;;;;;;;8.73;100.00;101929.31;5389090;26;19972;-70
2024/05/08 02:14:57;;;;;;;;;;;;;;;8.74;100.00;101928.50;5388361;26;19982;-71
2024/05/08 02:17:22;;;;;;;;;;;;;;;8.79;100.00;101934.94;5409792;26;19963;-70
2024/05/08 02:19:47;;;;;;;;;;;;;;;8.82;100.00;101929.81;5411589;26;19967;-71
2024/05/08 02:22:12;;;;;;;;;;;;;;;8.85;100.00;101927.31;5407093;26;19974;-69
2024/05/08 02:24:37;;;;;;;;;;;;;;;8.87;100.00;101930.94;5411143;26;20597;-70
2024/05/08 02:27:04;;;;;;;;;;;;;;;8.81;100.00;101941.19;5394421;26;19929;-70
2024/05/08 02:29:30;;;;;;;;;;;;;;;8.74;100.00;101939.03;5390188;26;19937;-70
2024/05/08 02:31:55;;;;;;;;;;;;;;;8.71;100.00;101938.88;5411861;26;19936;-70
2024/05/08 02:34:20;;;;;;;;;;;;;;;8.74;100.00;101944.31;5411104;26;19961;-71
2024/05/08 02:36:45;;;;;;;;;;;;;;;8.73;100.00;101942.50;5407348;26;20733;-70
2024/05/08 02:39:10;;;;;;;;;;;;;;;8.84;100.00;101941.31;5399047;26;19977;-71
2024/05/08 02:41:36;;;;;;;;;;;;;;;8.85;100.00;101937.88;5410543;26;19968;-71
2024/05/08 02:44:01;;;;;;;;;;;;;;;8.93;100.00;101936.56;5411386;26;19937;-72
2024/05/08 02:46:26;;;;;;;;;;;;;;;9.06;100.00;101939.00;5411637;26;20361;-70
2024/05/08 02:48:51;;;;;;;;;;;;;;;9.21;100.00;101948.53;5411069;26;19997;-72
2024/05/08 02:51:16;;;;;;;;;;;;;;;9.32;100.00;101948.28;5411325;26;19959;-70
2024/05/08 02:53:41;;;;;;;;;;;;;;;9.41;100.00;101963.66;5411587;26;20651;-71
2024/05/08 02:56:07;;;;;;;;;;;;;;;9.37;100.00;101961.69;5393924;26;19968;-69
2024/05/08 02:58:32;;;;;;;;;;;;;;;9.29;100.00;101957.75;5408703;26;19983;-70
2024/05/08 03:00:57;;;;;;;;;;;;;;;9.30;100.00;101957.84;5411142;26;19933;-72
2024/05/08 03:03:22;;;;;;;;;;;;;;;9.26;100.00;101957.59;5411067;26;19981;-70
2024/05/08 03:05:47;;;;;;;;;;;;;;;9.30;100.00;101962.22;5392657;26;19929;-72
2024/05/08 03:08:13;;;;;;;;;;;;;;;9.34;100.00;101966.84;5410986;26;20755;-67
2024/05/08 03:10:38;;;;;;;;;;;;;;;9.41;100.00;101963.66;5406540;26;19985;-70
2024/05/08 03:13:03;;;;;;;;;;;;;;;9.42;100.00;101963.75;5411543;26;19953;-71
2024/05/08 03:15:28;;;;;;;;;;;;;;;9.48;100.00;101963.16;5411158;26;20288;-70
2024/05/08 03:17:54;;;;;;;;;;;;;;;9.52;100.00;101957.22;5407963;26;19929;-70
2024/05/08 03:20:19;;;;;;;;;;;;;;;9.55;100.00;101964.34;5411150;26;19936;-69
2024/05/08 03:22:44;;;;;;;;;;;;;;;9.69;100.00;101964.25;5410036;26;19941;-68
2024/05/08 03:25:10;;;;;;;;;;;;;;;9.75;100.00;101967.16;5408743;26;19979;-69
2024/05/08 03:27:35;;;;;;;;;;;;;;;9.84;100.00;101965.84;5409701;26;19936;-68
2024/05/08 03:30:00;;;;;;;;;;;;;;;9.91;100.00;101968.84;5410205;26;19968;-69
2024/05/08 03:32:25;;;;;;;;;;;;;;;9.91;100.00;101973.22;5406047;26;20544;-71
2024/05/08 03:34:50;;;;;;;;;;;;;;;9.94;100.00;101974.28;5412767;26;19936;-72
2024/05/08 03:37:15;;;;;;;;;;;;;;;9.96;100.00;101977.00;5431258;26;19974;-71
2024/05/08 03:39:41;;;;;;;;;;;;;;;9.91;100.00;101979.41;5420785;26;19929;-70
2024/05/08 03:42:06;;;;;;;;;;;;;;;9.91;100.00;101973.22;5415708;26;19933;-70
2024/05/08 03:44:31;;;;;;;;;;;;;;;9.98;100.00;101980.63;5421206;26;20073;-69
2024/05/08 03:46:56;;;;;;;;;;;;;;;10.19;100.00;101981.69;5391619;26;19959;-71
2024/05/08 03:49:21;;;;;;;;;;;;;;;10.30;100.00;101980.47;5375165;26;19933;-70
2024/05/08 03:51:46;;;;;;;;;;;;;;;10.41;100.00;101984.53;5383225;26;20319;-68
2024/05/08 03:54:12;;;;;;;;;;;;;;;10.38;100.00;101984.41;5375238;26;20397;-69
2024/05/08 03:56:43;;;;;;;;;;;;;;;10.33;100.00;101980.63;5374579;26;20040;-72
2024/05/08 03:59:08;;;;;;;;;;;;;;;10.24;100.00;101988.09;5374410;26;19930;-69
2024/05/08 04:01:37;;;;;;;;;;;;;;;10.26;100.00;101981.16;5378254;26;20289;-74
2024/05/08 04:04:02;;;;;;;;;;;;;;;10.27;100.00;101988.25;5379254;26;19936;-70
2024/05/08 04:06:27;;;;;;;;;;;;;;;10.29;100.00;101983.94;5374239;26;19981;-71
2024/05/08 04:08:52;;;;;;;;;;;;;;;10.41;100.00;101983.63;5386638;26;20008;-70
2024/05/08 04:11:18;;;;;;;;;;;;;;;10.44;100.00;101984.66;5373636;26;19999;-70
2024/05/08 04:13:43;;;;;;;;;;;;;;;10.49;100.00;101981.34;5374412;26;19937;-71
2024/05/08 04:16:10;;;;;;;;;;;;;;;10.59;100.00;101978.28;5391985;26;20246;-72
2024/05/08 04:18:35;;;;;;;;;;;;;;;10.61;100.00;101981.91;5392556;26;20751;-61
2024/05/08 04:21:01;;;;;;;;;;;;;;;10.71;100.00;101984.16;5412984;26;19928;-63
2024/05/08 04:23:26;;;;;;;;;;;;;;;10.79;100.00;101977.47;5416082;26;19937;-62
2024/05/08 04:25:51;;;;;;;;;;;;;;;10.86;100.00;101976.03;5427995;26;19981;-63
2024/05/08 04:28:17;;;;;;;;;;;;;;;10.96;100.00;101975.59;5401960;26;20389;-65
2024/05/08 04:30:42;;;;;;;;;;;;;;;10.97;100.00;101983.59;5408579;26;19982;-68
2024/05/08 04:33:08;;;;;;;;;;;;;;;11.04;100.00;101982.16;5417679;26;19930;-65
2024/05/08 04:35:33;;;;;;;;;;;;;;;11.12;100.00;101986.94;5404924;26;19977;-64
2024/05/08 04:37:58;;;;;;;;;;;;;;;11.14;100.00;101987.91;5395765;26;19945;-63
2024/05/08 04:40:23;;;;;;;;;;;;;;;11.19;100.00;101989.84;5419403;26;19935;-65
2024/05/08 04:42:49;;;;;;;;;;;;;;;11.24;100.00;101988.34;5403873;26;19929;-62
2024/05/08 04:45:14;;;;;;;;;;;;;;;11.28;100.00;101982.31;5411857;26;20068;-63
2024/05/08 04:47:39;;;;;;;;;;;;;;;11.30;100.00;101985.94;5415891;26;19937;-63
2024/05/08 04:50:05;;;;;;;;;;;;;;;11.04;100.00;101939.81;5415069;26;19935;-62
2024/05/08 04:52:31;;;;;;;;;;;;;;;11.29;100.00;101977.09;5402094;26;19943;-61
2024/05/08 04:54:56;;;;;;;;;;;;;;;11.29;100.00;101984.13;5419705;26;19944;-62
2024/05/08 04:57:21;;;;;;;;;;;;;;;11.26;100.00;101983.97;5407811;26;19959;-63
2024/05/08 04:59:46;;;;;;;;;;;;;;;11.30;100.00;101993.88;5412858;26;19937;-62
2024/05/08 05:02:11;;;;;;;;;;;;;;;11.40;100.00;101989.06;5401501;26;19929;-62
2024/05/08 05:04:36;;;;;;;;;;;;;;;11.33;100.00;101976.38;5399063;26;19963;-61
2024/05/08 05:07:02;;;;;;;;;;;;;;;11.37;100.00;101980.09;5397202;26;19982;-62
2024/05/08 05:09:27;;;;;;;;;;;;;;;11.36;100.00;101972.97;5403244;26;19936;-62
2024/05/08 05:11:53;;;;;;;;;;;;;;;11.38;100.00;101981.91;5407713;26;19994;-63
2024/05/08 05:14:18;;;;;;;;;;;;;;;11.42;100.00;101983.84;5418362;26;19929;-62
2024/05/08 05:16:43;;;;;;;;;;;;;;;11.48;100.00;101979.69;5390357;26;19945;-63
2024/05/08 05:19:08;;;;;;;;;;;;;;;11.49;100.00;101970.00;5416607;26;19985;-64
2024/05/08 05:21:34;;;;;;;;;;;;;;;11.49;100.00;101975.31;5404840;26;20411;-61
2024/05/08 05:23:59;;;;;;;;;;;;;;;11.48;100.00;101969.09;5418929;26;20060;-63
2024/05/08 05:26:24;;;;;;;;;;;;;;;11.48;100.00;101978.78;5422340;26;19937;-63
2024/05/08 05:28:49;;;;;;;;;;;;;;;11.40;100.00;101969.63;5417729;26;19975;-62
2024/05/08 05:33:58;;;;;;;;;;;;;;;11.54;100.00;101979.06;5415779;26;20273;-63
2024/05/08 05:36:24;;;;;;;;;;;;;;;11.97;100.00;101967.63;5413947;26;19944;-64
2024/05/08 05:38:49;;;;;;;;;;;;;;;12.55;100.00;101949.66;5415533;26;19943;-64
2024/05/08 05:41:15;;;;;;;;;;;;;;;12.96;100.00;101951.22;5419701;26;19980;-63
2024/05/08 05:46:25;;;;;;;;;;;;;;;15.83;100.00;101918.41;5400882;26;20445;-64
2024/05/08 05:48:51;;;;;;;;;;;;;;;17.23;100.00;101889.44;5405305;26;19971;-63
2024/05/08 05:51:16;;;;;;;;;;;;;;;17.84;100.00;101877.09;5407303;26;19976;-61
2024/05/08 05:53:42;;;;;;;;;;;;;;;17.17;100.00;101884.84;5400969;26;19930;-64
2024/05/08 05:56:07;;;;;;;;;;;;;;;16.55;100.00;101895.19;5409745;26;19929;-66
2024/05/08 05:58:32;;;;;;;;;;;;;;;16.35;100.00;101899.19;5412127;26;19930;-63
2024/05/08 06:00:57;;;;;;;;;;;;;;;15.83;100.00;101908.66;5418431;26;19988;-65
2024/05/08 06:03:23;;;;;;;;;;;;;;;15.62;100.00;101910.78;5406232;26;19943;-65
2024/05/08 06:05:48;;;;;;;;;;;;;;;15.53;100.00;101913.19;5420845;26;19933;-64
2024/05/08 06:08:13;;;;;;;;;;;;;;;15.57;100.00;101915.13;5412236;26;19944;-62
2024/05/08 06:10:38;;;;;;;;;;;;;;;15.60;100.00;101912.50;5405181;26;19940;-67
2024/05/08 06:13:04;;;;;;;;;;;;;;;15.89;100.00;101919.47;5413081;26;19937;-64
2024/05/08 06:15:29;;;;;;;;;;;;;;;16.15;100.00;101900.50;5426832;26;19959;-67
2024/05/08 06:17:54;;;;;;;;;;;;;;;16.22;100.00;101902.47;5404738;26;19941;-64
2024/05/08 06:20:19;;;;;;;;;;;;;;;16.53;100.00;101894.25;5422571;26;19931;-64
2024/05/08 06:22:44;;;;;;;;;;;;;;;16.52;100.00;101905.78;5414002;26;20247;-65
2024/05/08 06:25:10;;;;;;;;;;;;;;;16.48;100.00;101895.91;5415907;26;19935;-70
2024/05/08 06:27:35;;;;;;;;;;;;;;;16.67;100.00;101892.78;5410514;26;20877;-62
2024/05/08 06:30:00;;;;;;;;;;;;;;;16.83;100.00;101894.00;5410290;26;20037;-62
2024/05/08 06:32:25;;;;;;;;;;;;;;;16.97;100.00;101888.94;5412798;26;19937;-62
2024/05/08 06:34:50;;;;;;;;;;;;;;;17.52;100.00;101881.91;5415590;26;20361;-63
2024/05/08 06:37:16;;;;;;;;;;;;;;;17.95;100.00;101872.84;5412212;26;19963;-62
2024/05/08 06:39:41;;;;;;;;;;;;;;;18.00;100.00;101834.59;5418444;26;19929;-62
2024/05/08 06:42:06;;;;;;;;;;;;;;;17.89;100.00;101875.41;5410108;26;19940;-62
2024/05/08 06:44:32;;;;;;;;;;;;;;;17.45;100.00;101890.72;5409489;26;19928;-64
2024/05/08 06:46:57;;;;;;;;;;;;;;;16.86;100.00;101903.84;5421655;26;20241;-63
2024/05/08 06:49:22;;;;;;;;;;;;;;;16.54;100.00;101914.72;5405961;26;19944;-65
2024/05/08 06:51:47;;;;;;;;;;;;;;;16.22;100.00;101913.13;5418293;26;19937;-64
2024/05/08 06:54:12;;;;;;;;;;;;;;;16.12;100.00;101922.66;5417533;26;19967;-63
2024/05/08 06:56:38;;;;;;;;;;;;;;;15.86;100.00;101927.41;5397945;26;19936;-63
2024/05/08 06:59:04;;;;;;;;;;;;;;;15.68;100.00;101928.72;5422189;26;19936;-62
2024/05/08 07:01:29;;;;;;;;;;;;;;;15.54;100.00;101931.00;5403667;26;20344;-64
2024/05/08 07:03:54;;;;;;;;;;;;;;;15.53;100.00;101935.41;5407781;26;20089;-64
2024/05/08 07:06:19;;;;;;;;;;;;;;;15.58;100.00;101925.81;5405786;26;19960;-67
2024/05/08 07:08:45;;;;;;;;;;;;;;;15.80;100.00;101923.66;5415786;26;20297;-68
2024/05/08 07:11:10;;;;;;;;;;;;;;;15.96;100.00;101921.41;5404778;26;20112;-63
2024/05/08 07:13:35;;;;;;;;;;;;;;;16.05;100.00;101919.84;5413756;26;19935;-64
2024/05/08 07:16:01;;;;;;;;;;;;;;;16.20;100.00;101920.19;5398832;26;19936;-61
2024/05/08 07:18:26;;;;;;;;;;;;;;;16.15;100.00;101927.19;5415207;26;19929;-63
2024/05/08 07:20:51;;;;;;;;;;;;;;;16.25;100.00;101923.88;5407991;26;20330;-63
2024/05/08 07:23:17;;;;;;;;;;;;;;;16.25;100.00;101924.78;5409303;26;19929;-63
2024/05/08 07:25:42;;;;;;;;;;;;;;;16.13;100.00;101923.56;5397386;26;20022;-65
2024/05/08 07:28:08;;;;;;;;;;;;;;;16.21;100.00;101927.34;5414833;26;19967;-62
2024/05/08 07:30:33;;;;;;;;;;;;;;;16.24;100.00;101928.31;5406077;26;20012;-65
2024/05/08 07:32:58;;;;;;;;;;;;;;;16.50;100.00;101920.88;5406953;26;20433;-64
2024/05/08 07:35:24;;;;;;;;;;;;;;;16.55;100.00;101919.22;5397192;26;19984;-63
2024/05/08 07:37:49;;;;;;;;;;;;;;;16.50;100.00;101914.63;5405742;26;19928;-63
2024/05/08 07:40:14;;;;;;;;;;;;;;;16.30;100.00;101914.19;5406010;26;20295;-63
2024/05/08 07:42:39;;;;;;;;;;;;;;;16.62;100.00;101909.56;5401496;26;19960;-64
2024/05/08 07:45:04;;;;;;;;;;;;;;;16.36;100.00;101911.66;5402820;26;19929;-65
2024/05/08 07:47:30;;;;;;;;;;;;;;;16.80;100.00;101903.72;5428647;26;20356;-67
2024/05/08 07:49:55;;;;;;;;;;;;;;;17.18;100.00;101897.34;5401388;26;19976;-66
2024/05/08 07:52:20;;;;;;;;;;;;;;;17.39;100.00;101892.41;5401555;26;19963;-66
2024/05/08 07:54:46;;;;;;;;;;;;;;;17.66;100.00;101885.78;5419144;26;20385;-65
2024/05/08 07:57:11;;;;;;;;;;;;;;;17.69;100.00;101892.03;5412654;26;19936;-64
2024/05/08 07:59:37;;;;;;;;;;;;;;;17.87;100.00;101891.44;5412416;26;19961;-62
2024/05/08 08:02:02;;;;;;;;;;;;;;;18.08;100.00;101881.06;5419855;26;20015;-66
2024/05/08 08:04:27;;;;;;;;;;;;;;;18.07;100.00;101881.03;5413369;26;19941;-68
2024/05/08 08:06:53;;;;;;;;;;;;;;;18.18;100.00;101878.53;5406793;26;20821;-63
2024/05/08 08:09:18;;;;;;;;;;;;;;;18.31;100.00;101885.84;5416434;26;19929;-64
2024/05/08 08:11:44;;;;;;;;;;;;;;;18.60;100.00;101881.78;5410540;26;19929;-66
2024/05/08 08:14:09;;;;;;;;;;;;;;;18.73;100.00;101878.38;5419329;26;20830;-68
2024/05/08 08:16:34;;;;;;;;;;;;;;;18.47;100.00;101884.28;5418788;26;19933;-63
2024/05/08 08:19:00;;;;;;;;;;;;;;;18.46;100.00;101882.47;5409130;26;20470;-64
2024/05/08 08:21:25;;;;;;;;;;;;;;;18.72;100.00;101881.94;5406075;26;19943;-62
2024/05/08 08:23:51;;;;;;;;;;;;;;;19.09;100.00;101871.63;5395060;26;19963;-68
2024/05/08 08:26:16;;;;;;;;;;;;;;;19.24;100.00;101866.41;5412417;26;20047;-65
2024/05/08 08:28:42;;;;;;;;;;;;;;;19.28;100.00;101862.88;5408878;26;20515;-66
2024/05/08 08:31:07;;;;;;;;;;;;;;;18.95;100.00;101870.59;5404365;26;19968;-68
2024/05/08 08:33:32;;;;;;;;;;;;;;;19.13;100.00;101873.47;5406888;26;19968;-67
2024/05/08 08:35:57;;;;;;;;;;;;;;;19.55;100.00;101864.06;5421871;26;19975;-67
2024/05/08 08:38:23;;;;;;;;;;;;;;;19.50;100.00;101869.38;5406455;26;19940;-72
2024/05/08 08:40:48;;;;;;;;;;;;;;;19.54;100.00;101868.53;5420071;26;19989;-68
2024/05/08 08:43:13;;;;;;;;;;;;;;;19.32;100.00;101869.19;5407849;26;20717;-69
2024/05/08 08:45:39;;;;;;;;;;;;;;;19.04;100.00;101873.38;5422919;26;19964;-68
2024/05/08 08:48:04;;;;;;;;;;;;;;;18.52;100.00;101872.75;5413943;26;20035;-67
2024/05/08 08:50:30;;;;;;;;;;;;;;;18.85;100.00;101876.75;5411296;26;19932;-69
2024/05/08 08:52:56;;;;;;;;;;;;;;;18.89;100.00;101878.56;5408422;26;20022;-69
2024/05/08 08:55:21;;;;;;;;;;;;;;;18.51;100.00;101876.31;5417995;26;19978;-69
2024/05/08 08:57:47;;;;;;;;;;;;;;;18.31;100.00;101877.81;5408419;26;20487;-67
2024/05/08 09:00:13;;;;;;;;;;;;;;;18.45;100.00;101878.88;5415181;26;19929;-71
2024/05/08 09:02:40;;;;;;;;;;;;;;;18.51;100.00;101887.00;5399777;26;19929;-66
2024/05/08 09:05:06;;;;;;;;;;;;;;;18.59;100.00;101880.00;5404562;26;20023;-71
2024/05/08 09:07:32;;;;;;;;;;;;;;;18.19;100.00;101882.97;5416396;26;19936;-68
2024/05/08 09:09:57;;;;;;;;;;;;;;;18.31;100.00;101888.53;5394340;26;20890;-69
2024/05/08 09:12:22;;;;;;;;;;;;;;;18.34;100.00;101888.56;5403666;26;19937;-66
2024/05/08 09:14:53;;;;;;;;;;;;;;;18.50;100.00;101889.66;5393820;26;20415;-71
2024/05/08 09:17:19;;;;;;;;;;;;;;;17.99;100.00;101897.00;5396396;26;19933;-62
2024/05/08 09:19:44;;;;;;;;;;;;;;;17.98;100.00;101900.53;5408805;26;20530;-66
2024/05/08 09:22:09;;;;;;;;;;;;;;;18.23;100.00;101904.47;5394423;26;19960;-68
2024/05/08 09:24:34;;;;;;;;;;;;;;;18.36;100.00;101908.19;5399393;26;20520;-65
2024/05/08 09:27:00;;;;;;;;;;;;;;;18.26;100.00;101906.28;5398947;26;19936;-65
2024/05/08 09:29:25;;;;;;;;;;;;;;;18.47;100.00;101906.59;5411014;26;19972;-64
2024/05/08 09:31:50;;;;;;;;;;;;;;;18.13;100.00;101909.66;5402197;26;19982;-64
2024/05/08 09:34:16;;;;;;;;;;;;;;;18.28;100.00;101905.44;5398048;26;20002;-66
2024/05/08 09:36:42;;;;;;;;;;;;;;;17.88;100.00;101911.06;5395290;26;20031;-68
2024/05/08 09:39:07;;;;;;;;;;;;;;;17.67;100.00;101922.28;5417945;26;19937;-68
2024/05/08 09:41:34;;;;;;;;;;;;;;;17.70;100.00;101925.03;5400885;26;19956;-63
2024/05/08 09:43:59;;;;;;;;;;;;;;;17.32;100.00;101925.22;5402314;26;19933;-67
2024/05/08 09:46:26;;;;;;;;;;;;;;;17.20;100.00;101925.00;5408056;26;20841;-66
2024/05/08 09:48:55;;;;;;;;;;;;;;;17.10;100.00;101928.38;5411897;26;19929;-69
2024/05/08 09:51:23;;;;;;;;;;;;;;;17.64;100.00;101919.59;5405834;26;19960;-73
2024/05/08 09:53:50;;;;;;;;;;;;;;;17.61;100.00;101919.50;5406148;26;20381;-64
2024/05/08 09:56:17;;;;;;;;;;;;;;;17.68;100.00;101916.06;5416435;26;19936;-72
2024/05/08 09:58:42;;;;;;;;;;;;;;;17.63;100.00;101918.66;5402101;26;19967;-65
2024/05/08 10:01:08;;;;;;;;;;;;;;;17.48;100.00;101917.50;5396721;26;19929;-65
2024/05/08 10:03:33;;;;;;;;;;;;;;;17.25;100.00;101933.09;5403680;26;20363;-65
2024/05/08 10:05:58;;;;;;;;;;;;;;;17.07;100.00;101925.66;5400516;26;19982;-69
2024/05/08 10:08:24;;;;;;;;;;;;;;;16.76;100.00;101937.50;5400616;26;19957;-68
2024/05/08 10:10:49;;;;;;;;;;;;;;;16.39;100.00;101943.75;5417551;26;19930;-68
2024/05/08 10:13:24;;;;;;;;;;;;;;;16.59;100.00;101947.78;5416517;26;20410;-66
2024/05/08 10:15:53;;;;;;;;;;;;;;;16.60;100.00;101944.25;5415498;26;19980;-65
2024/05/08 10:18:28;;;;;;;;;;;;;;;17.05;100.00;101946.97;5412177;26;19933;-66
2024/05/08 10:21:02;;;;;;;;;;;;;;;17.20;100.00;101946.38;5417613;26;19944;-66
2024/05/08 10:23:28;;;;;;;;;;;;;;;16.95;100.00;101941.44;5409367;26;19987;-67
2024/05/08 10:25:57;;;;;;;;;;;;;;;16.74;100.00;101946.34;5413025;26;19983;-68
2024/05/08 10:28:24;;;;;;;;;;;;;;;16.79;100.00;101950.00;5423324;26;19936;-65
2024/05/08 10:30:49;;;;;;;;;;;;;;;17.18;100.00;101945.44;5410523;26;19957;-65
2024/05/08 10:33:16;;;;;;;;;;;;;;;17.90;100.00;101934.28;5409481;26;19936;-66
2024/05/08 10:35:41;;;;;;;;;;;;;;;18.18;100.00;101937.41;5405247;26;19963;-71
2024/05/08 10:38:06;;;;;;;;;;;;;;;18.00;100.00;101938.03;5415007;26;19971;-67
2024/05/08 10:40:31;;;;;;;;;;;;;;;17.93;100.00;101937.00;5415884;26;19928;-68
2024/05/08 10:42:57;;;;;;;;;;;;;;;17.94;100.00;101946.84;5410835;26;20182;-71
2024/05/08 10:45:22;;;;;;;;;;;;;;;18.12;100.00;101934.63;5405479;26;19936;-73
2024/05/08 10:47:48;;;;;;;;;;;;;;;18.17;100.00;101938.28;5410951;26;20006;-70
2024/05/08 10:50:13;;;;;;;;;;;;;;;18.28;100.00;101931.31;5422277;26;20055;-71
2024/05/08 10:52:38;;;;;;;;;;;;;;;18.82;100.00;101923.13;5408103;26;19967;-69
2024/05/08 10:55:04;;;;;;;;;;;;;;;19.04;100.00;101926.97;5413210;26;19967;-66
2024/05/08 10:57:29;;;;;;;;;;;;;;;18.84;100.00;101915.13;5420404;26;19959;-72
2024/05/08 10:59:55;;;;;;;;;;;;;;;18.18;100.00;101929.38;5418530;26;19943;-64
2024/05/08 11:02:24;;;;;;;;;;;;;;;17.58;100.00;101931.03;5410210;26;19963;-69
2024/05/08 11:05:09;;;;;;;;;;;;;;;17.59;100.00;101937.28;5407899;26;20365;-71
2024/05/08 11:07:42;;;;;;;;;;;;;;;17.53;100.00;101929.16;5415480;26;19935;-68
2024/05/08 11:10:08;;;;;;;;;;;;;;;17.69;100.00;101931.25;5419251;26;19956;-71
2024/05/08 11:12:33;;;;;;;;;;;;;;;17.59;100.00;101930.19;5414768;26;19944;-72
2024/05/08 11:15:00;;;;;;;;;;;;;;;17.35;100.00;101932.41;5421272;26;19979;-69
2024/05/08 11:17:25;;;;;;;;;;;;;;;17.42;100.00;101936.09;5402004;26;19936;-69
2024/05/08 11:19:50;;;;;;;;;;;;;;;17.86;100.00;101932.44;5403109;26;19936;-70
2024/05/08 11:22:17;;;;;;;;;;;;;;;18.19;100.00;101921.34;5411292;26;19937;-71
2024/05/08 11:24:42;;;;;;;;;;;;;;;18.81;100.00;101923.13;5401839;26;19929;-69
2024/05/08 11:27:07;;;;;;;;;;;;;;;18.49;100.00;101915.53;5402177;26;19930;-67
2024/05/08 11:29:32;;;;;;;;;;;;;;;19.00;100.00;101909.06;5410067;26;19970;-67
2024/05/08 11:31:57;;;;;;;;;;;;;;;18.74;100.00;101911.41;5402065;26;20033;-69
2024/05/08 11:34:23;;;;;;;;;;;;;;;19.19;100.00;101913.75;5417304;26;20842;-68
2024/05/08 11:36:48;;;;;;;;;;;;;;;19.64;100.00;101909.72;5407950;26;19959;-69
2024/05/08 11:39:13;;;;;;;;;;;;;;;19.26;100.00;101906.63;5412391;26;19929;-70
2024/05/08 11:41:38;;;;;;;;;;;;;;;18.97;100.00;101911.69;5407506;26;19949;-68
2024/05/08 11:44:03;;;;;;;;;;;;;;;18.64;100.00;101915.78;5411057;26;20379;-68
2024/05/08 11:46:29;;;;;;;;;;;;;;;18.08;100.00;101923.88;5409757;26;19972;-69
2024/05/08 11:48:54;;;;;;;;;;;;;;;18.14;100.00;101927.53;5402374;26;19944;-70
2024/05/08 11:51:20;;;;;;;;;;;;;;;18.55;100.00;101926.31;5403403;26;19959;-69
2024/05/08 11:53:45;;;;;;;;;;;;;;;18.47;100.00;101928.00;5408457;26;20375;-67
2024/05/08 11:56:10;;;;;;;;;;;;;;;18.02;100.00;101918.41;5419962;26;20379;-69
2024/05/08 11:58:36;;;;;;;;;;;;;;;17.77;100.00;101929.63;5426551;26;19929;-70
2024/05/08 12:01:01;;;;;;;;;;;;;;;17.57;100.00;101939.94;5415257;26;19981;-70
2024/05/08 12:03:26;;;;;;;;;;;;;;;18.61;100.00;101926.44;5400993;26;19938;-69
2024/05/08 12:05:51;;;;;;;;;;;;;;;18.47;100.00;101928.00;5413268;26;19937;-68
2024/05/08 12:08:16;;;;;;;;;;;;;;;18.47;100.00;101927.09;5405480;26;20004;-68
2024/05/08 12:10:42;;;;;;;;;;;;;;;18.31;100.00;101928.69;5421571;26;20015;-69
2024/05/08 12:13:07;;;;;;;;;;;;;;;18.59;100.00;101930.88;5433941;26;19988;-67
2024/05/08 12:15:32;;;;;;;;;;;;;;;18.37;100.00;101932.31;5410300;26;19956;-70
2024/05/08 12:17:57;;;;;;;;;;;;;;;18.35;100.00;101933.19;5405236;26;19971;-69
2024/05/08 12:20:24;;;;;;;;;;;;;;;18.25;100.00;101929.47;5404996;26;19943;-71
2024/05/08 12:22:49;;;;;;;;;;;;;;;18.42;100.00;101925.25;5414418;26;19971;-68
2024/05/08 12:25:14;;;;;;;;;;;;;;;17.82;100.00;101941.31;5409788;26;19935;-68
2024/05/08 12:27:40;;;;;;;;;;;;;;;17.51;100.00;101938.91;5405963;26;19966;-69